Clayton Lake, ME

6:57 PM EST on February 24, 2017 (GMT -0500)
Clayton Lake | | Change Station
Active Advisory: Freezing Rain Advisory

Elev 1030 ft 46.61 °N, 69.53 °W | Updated 40 minutes ago

Overcast
Overcast
36 °F
Feels Like 36 °F
N
0
Wind Variable Wind from North

Today
High -- | Low -- °F
--% Chance of Precip.
Yesterday
High -- | Low -- °F
Precip. -- in
Pressure 29.92 in
Visibility -9999.0 miles
Clouds
Dew Point 35 °F
Humidity 96%
Rainfall 0.04 in
Snow Depth Not available.
6:26 AM 5:17 PM
Waning Crescent, 3% visible
METAR K40B 242317Z AUTO 00000KT 02/02 A2987 RMK AO1 SLP130 T00240018 50008 P0001
Pressure 29.92 in
Visibility -9999.0 miles
Clouds
Dew Point 35 °F
Humidity 96%
Rainfall 0.04 in
Snow Depth Not available.
6:26 AM 5:17 PM
Waning Crescent, 3% visible
METAR K40B 242317Z AUTO 00000KT 02/02 A2987 RMK AO1 SLP130 T00240018 50008 P0001

Get Your Daily Forecast Email!

Thanks for signing up!

Be on the lookout for a verification email in your inbox.

You'll start receiving the daily forecast at 8 AM.

×

10-Day Weather Forecast

Almanac

Astronomy

Feb. 24, 2017 Rise Set
Actual Time
Civil Twilight
Nautical Twilight
Astronomical Twilight
Moon
Length of Visible Light
Length of Day
Tomorrow will be .
, % of the Moon is Illuminated

Today's Extremes

State Highs State Lows

Community

WunderPhotos

Upload Photos

1,962,540 photos uploaded!

WunderBlog® & News

Nearby

Air Quality

  Air Quality AQ Index Pollutant
Not available.

Snow Depth

Station Depth Elevation

Earthquake Activity

City Distance Mag. Time & Date
Minimum magnitude displayed is 2.5.

Coastal Water Temperatures

Place Temperature

Stations

Nearby Weather Stations

Station Location Temp. Windchill Dew Point Humidity Wind Precip. Elev Updated Type
                   

Watches & Warnings

Freezing Rain Advisory
Issued: 3:17 PM EST Feb. 24, 2017 – National Weather Service

... Freezing Rain Advisory remains in effect from 11 PM this
evening to 10 am EST Saturday...

* locations... all of northern Maine including The Mount katahdin
region.

* Ice accumulations... a trace to a tenth of an inch.

* Timing... overnight into Saturday morning.

* Impacts... icing may create slippery Road conditions.

* Winds... east 5 to 10 mph.

* Temperatures... in the upper 20s to lower 30s.

Precautionary/preparedness actions...

A Freezing Rain Advisory means that periods of freezing rain or
freezing drizzle will cause travel difficulties. Be prepared for
slippery roads. Slow down and use caution while driving.



Vjn